Lawrenceville, Pennsylvania
Current Conditions -  °F | °C
As of 2:53 AM on Tuesday 21 Oct 2014 (Local Time) from KELM Reporting Station
Overcast Overcast  
Wind Chill: 47°   Ceiling: 6500
Heat Index: 47°   Visibility: 8mi
Dew Point: 46°   Wind: 0mph
Humidity: 97%   Direction: NA
Pressure: 29.83"   Gusts: NA
Location:  42°N, 77.13°W
Report Text: KELM 210653Z AUTO 00000KT 8SM OVC065 08/08 A2983 RMK AO2 SLP105 T00830078
Loading
Personal Weather Stations






























Interactive Weather Map
Tropical Storm Tracking
New forecast layout! Learn more

10-Day Weather Forecast

Advertisements
Track Severe Weather on mobile